sensor_id;sensor_type;location;lat;lon;timestamp;temperature;humidity
9237;DHT22;24579;42.810;23.214;2022-09-01T00:01:41;16.20;99.90
9237;DHT22;24579;42.810;23.214;2022-09-01T00:04:10;16.20;99.90
9237;DHT22;24579;42.810;23.214;2022-09-01T00:06:38;16.10;99.90
9237;DHT22;24579;42.810;23.214;2022-09-01T00:09:07;15.90;99.90
9237;DHT22;24579;42.810;23.214;2022-09-01T00:11:35;15.80;99.90
9237;DHT22;24579;42.810;23.214;2022-09-01T00:14:03;15.60;99.90
9237;DHT22;24579;42.810;23.214;2022-09-01T00:16:32;15.70;99.90
9237;DHT22;24579;42.810;23.214;2022-09-01T00:19:02;15.80;99.90
9237;DHT22;24579;42.810;23.214;2022-09-01T00:21:31;15.60;99.90
9237;DHT22;24579;42.810;23.214;2022-09-01T00:23:59;15.60;99.90
9237;DHT22;24579;42.810;23.214;2022-09-01T00:26:27;15.70;99.90
9237;DHT22;24579;42.810;23.214;2022-09-01T00:28:54;15.80;99.90
9237;DHT22;24579;42.810;23.214;2022-09-01T00:31:22;15.70;99.90
9237;DHT22;24579;42.810;23.214;2022-09-01T00:33:49;15.60;99.90
9237;DHT22;24579;42.810;23.214;2022-09-01T00:36:18;15.60;99.90
9237;DHT22;24579;42.810;23.214;2022-09-01T00:38:46;15.20;99.90
9237;DHT22;24579;42.810;23.214;2022-09-01T00:41:14;15.10;99.90
9237;DHT22;24579;42.810;23.214;2022-09-01T00:43:44;15.10;99.90
9237;DHT22;24579;42.810;23.214;2022-09-01T00:46:13;15.10;99.90
9237;DHT22;24579;42.810;23.214;2022-09-01T00:48:41;14.80;99.90
9237;DHT22;24579;42.810;23.214;2022-09-01T00:51:10;14.80;99.90
9237;DHT22;24579;42.810;23.214;2022-09-01T00:53:41;14.80;99.90
9237;DHT22;24579;42.810;23.214;2022-09-01T00:56:10;15.00;99.90
9237;DHT22;24579;42.810;23.214;2022-09-01T00:58:39;15.20;99.90
9237;DHT22;24579;42.810;23.214;2022-09-01T01:01:07;15.30;99.90
9237;DHT22;24579;42.810;23.214;2022-09-01T01:03:35;15.50;99.90
9237;DHT22;24579;42.810;23.214;2022-09-01T01:06:06;15.30;99.90
9237;DHT22;24579;42.810;23.214;2022-09-01T01:08:36;15.10;99.90
9237;DHT22;24579;42.810;23.214;2022-09-01T01:11:08;15.30;99.90
9237;DHT22;24579;42.810;23.214;2022-09-01T01:13:47;15.40;99.90
9237;DHT22;24579;42.810;23.214;2022-09-01T01:16:16;15.50;99.90
9237;DHT22;24579;42.810;23.214;2022-09-01T01:18:43;15.50;99.90
9237;DHT22;24579;42.810;23.214;2022-09-01T01:21:16;15.60;99.90
9237;DHT22;24579;42.810;23.214;2022-09-01T01:24:05;15.50;99.90
9237;DHT22;24579;42.810;23.214;2022-09-01T01:26:36;15.40;99.90
9237;DHT22;24579;42.810;23.214;2022-09-01T01:29:04;15.30;99.90
9237;DHT22;24579;42.810;23.214;2022-09-01T01:31:32;15.20;99.90
9237;DHT22;24579;42.810;23.214;2022-09-01T01:34:00;15.20;99.90
9237;DHT22;24579;42.810;23.214;2022-09-01T01:36:32;15.10;99.90
9237;DHT22;24579;42.810;23.214;2022-09-01T01:39:05;15.20;99.90
9237;DHT22;24579;42.810;23.214;2022-09-01T01:41:35;15.10;99.90
9237;DHT22;24579;42.810;23.214;2022-09-01T01:44:07;15.20;99.90
9237;DHT22;24579;42.810;23.214;2022-09-01T01:46:35;15.20;99.90
9237;DHT22;24579;42.810;23.214;2022-09-01T01:49:07;15.20;99.90
9237;DHT22;24579;42.810;23.214;2022-09-01T01:51:34;15.30;99.90
9237;DHT22;24579;42.810;23.214;2022-09-01T01:54:01;15.10;99.90
9237;DHT22;24579;42.810;23.214;2022-09-01T01:56:31;14.90;99.90
9237;DHT22;24579;42.810;23.214;2022-09-01T01:59:04;14.90;99.90
9237;DHT22;24579;42.810;23.214;2022-09-01T02:01:31;15.10;99.90
9237;DHT22;24579;42.810;23.214;2022-09-01T02:04:00;15.20;99.90
9237;DHT22;24579;42.810;23.214;2022-09-01T02:06:32;15.20;99.90
9237;DHT22;24579;42.810;23.214;2022-09-01T02:08:59;15.10;99.90
9237;DHT22;24579;42.810;23.214;2022-09-01T02:11:29;15.10;99.90
9237;DHT22;24579;42.810;23.214;2022-09-01T02:13:59;15.20;99.90
9237;DHT22;24579;42.810;23.214;2022-09-01T02:16:31;15.20;99.90
9237;DHT22;24579;42.810;23.214;2022-09-01T02:19:00;15.10;99.90
9237;DHT22;24579;42.810;23.214;2022-09-01T02:21:27;15.10;99.90
9237;DHT22;24579;42.810;23.214;2022-09-01T02:23:58;15.10;99.90
9237;DHT22;24579;42.810;23.214;2022-09-01T02:26:27;15.10;99.90
9237;DHT22;24579;42.810;23.214;2022-09-01T02:28:57;15.10;99.90
9237;DHT22;24579;42.810;23.214;2022-09-01T02:31:31;15.10;99.90
9237;DHT22;24579;42.810;23.214;2022-09-01T02:34:00;15.10;99.90
9237;DHT22;24579;42.810;23.214;2022-09-01T02:36:28;15.00;99.90
9237;DHT22;24579;42.810;23.214;2022-09-01T02:38:57;15.10;99.90
9237;DHT22;24579;42.810;23.214;2022-09-01T02:41:24;15.00;99.90
9237;DHT22;24579;42.810;23.214;2022-09-01T02:43:54;15.00;99.90
9237;DHT22;24579;42.810;23.214;2022-09-01T02:46:21;15.10;99.90
9237;DHT22;24579;42.810;23.214;2022-09-01T02:48:50;15.10;99.90
9237;DHT22;24579;42.810;23.214;2022-09-01T02:51:20;15.20;99.90
9237;DHT22;24579;42.810;23.214;2022-09-01T02:53:50;15.30;99.90
9237;DHT22;24579;42.810;23.214;2022-09-01T02:56:18;15.20;99.90
9237;DHT22;24579;42.810;23.214;2022-09-01T02:58:48;15.30;99.90
9237;DHT22;24579;42.810;23.214;2022-09-01T03:01:17;15.30;99.90
9237;DHT22;24579;42.810;23.214;2022-09-01T03:03:46;15.30;99.90
9237;DHT22;24579;42.810;23.214;2022-09-01T03:06:15;15.20;99.90
9237;DHT22;24579;42.810;23.214;2022-09-01T03:08:44;15.20;99.90
9237;DHT22;24579;42.810;23.214;2022-09-01T03:11:11;15.20;99.90
9237;DHT22;24579;42.810;23.214;2022-09-01T03:13:40;15.20;99.90
9237;DHT22;24579;42.810;23.214;2022-09-01T03:16:07;15.00;99.90
9237;DHT22;24579;42.810;23.214;2022-09-01T03:18:35;15.10;99.90
9237;DHT22;24579;42.810;23.214;2022-09-01T03:21:02;15.00;99.90
9237;DHT22;24579;42.810;23.214;2022-09-01T03:23:32;15.10;99.90
9237;DHT22;24579;42.810;23.214;2022-09-01T03:26:00;15.20;99.90
9237;DHT22;24579;42.810;23.214;2022-09-01T03:28:27;15.30;99.90
9237;DHT22;24579;42.810;23.214;2022-09-01T03:30:55;15.20;99.90
9237;DHT22;24579;42.810;23.214;2022-09-01T03:33:25;15.10;99.90
9237;DHT22;24579;42.810;23.214;2022-09-01T03:35:52;15.20;99.90
9237;DHT22;24579;42.810;23.214;2022-09-01T03:38:20;15.20;99.90
9237;DHT22;24579;42.810;23.214;2022-09-01T03:40:51;15.10;99.90
9237;DHT22;24579;42.810;23.214;2022-09-01T03:43:19;15.10;99.90
9237;DHT22;24579;42.810;23.214;2022-09-01T03:45:49;15.20;99.90
9237;DHT22;24579;42.810;23.214;2022-09-01T03:48:16;15.30;99.90
9237;DHT22;24579;42.810;23.214;2022-09-01T03:50:45;15.10;99.90
9237;DHT22;24579;42.810;23.214;2022-09-01T03:53:14;15.10;99.90
9237;DHT22;24579;42.810;23.214;2022-09-01T03:55:44;15.20;99.90
9237;DHT22;24579;42.810;23.214;2022-09-01T03:58:14;15.20;99.90
9237;DHT22;24579;42.810;23.214;2022-09-01T04:03:33;15.20;99.90
9237;DHT22;24579;42.810;23.214;2022-09-01T04:06:01;15.10;99.90
9237;DHT22;24579;42.810;23.214;2022-09-01T04:08:28;14.80;99.90
9237;DHT22;24579;42.810;23.214;2022-09-01T04:10:58;14.70;99.90
9237;DHT22;24579;42.810;23.214;2022-09-01T04:13:30;14.80;99.90
9237;DHT22;24579;42.810;23.214;2022-09-01T04:15:58;14.90;99.90
9237;DHT22;24579;42.810;23.214;2022-09-01T04:18:25;15.00;99.90
9237;DHT22;24579;42.810;23.214;2022-09-01T04:20:53;14.90;99.90
9237;DHT22;24579;42.810;23.214;2022-09-01T04:23:23;15.20;99.90
9237;DHT22;24579;42.810;23.214;2022-09-01T04:25:54;15.20;99.90
9237;DHT22;24579;42.810;23.214;2022-09-01T04:28:23;15.30;99.90
9237;DHT22;24579;42.810;23.214;2022-09-01T04:30:54;15.20;99.90
9237;DHT22;24579;42.810;23.214;2022-09-01T04:33:24;15.00;99.90
9237;DHT22;24579;42.810;23.214;2022-09-01T04:35:52;15.20;99.90
9237;DHT22;24579;42.810;23.214;2022-09-01T04:38:23;15.00;99.90
9237;DHT22;24579;42.810;23.214;2022-09-01T04:40:50;15.00;99.90
9237;DHT22;24579;42.810;23.214;2022-09-01T04:43:18;15.20;99.90
9237;DHT22;24579;42.810;23.214;2022-09-01T04:45:46;15.30;99.90
9237;DHT22;24579;42.810;23.214;2022-09-01T04:48:18;15.20;99.90
9237;DHT22;24579;42.810;23.214;2022-09-01T04:50:47;15.30;99.90
9237;DHT22;24579;42.810;23.214;2022-09-01T04:53:17;15.50;99.90
9237;DHT22;24579;42.810;23.214;2022-09-01T04:55:44;15.40;99.90
9237;DHT22;24579;42.810;23.214;2022-09-01T04:58:15;15.50;99.90
9237;DHT22;24579;42.810;23.214;2022-09-01T05:00:44;15.60;99.90
9237;DHT22;24579;42.810;23.214;2022-09-01T05:03:13;15.50;99.90
9237;DHT22;24579;42.810;23.214;2022-09-01T05:05:47;15.50;99.90
9237;DHT22;24579;42.810;23.214;2022-09-01T05:08:18;15.70;99.90
9237;DHT22;24579;42.810;23.214;2022-09-01T05:10:48;15.60;99.90
9237;DHT22;24579;42.810;23.214;2022-09-01T05:13:17;15.80;99.90
9237;DHT22;24579;42.810;23.214;2022-09-01T05:15:46;15.80;99.90
9237;DHT22;24579;42.810;23.214;2022-09-01T05:18:14;15.90;99.90
9237;DHT22;24579;42.810;23.214;2022-09-01T05:20:50;15.90;99.90
9237;DHT22;24579;42.810;23.214;2022-09-01T05:23:18;15.70;99.90
9237;DHT22;24579;42.810;23.214;2022-09-01T05:25:48;15.90;99.90
9237;DHT22;24579;42.810;23.214;2022-09-01T05:28:16;15.90;99.90
9237;DHT22;24579;42.810;23.214;2022-09-01T05:30:45;15.90;99.90
9237;DHT22;24579;42.810;23.214;2022-09-01T05:33:13;15.90;99.90
9237;DHT22;24579;42.810;23.214;2022-09-01T05:35:42;15.80;99.90
9237;DHT22;24579;42.810;23.214;2022-09-01T05:38:11;15.90;99.90
9237;DHT22;24579;42.810;23.214;2022-09-01T05:40:40;15.80;99.90
9237;DHT22;24579;42.810;23.214;2022-09-01T05:43:08;15.90;99.90
9237;DHT22;24579;42.810;23.214;2022-09-01T05:45:38;15.90;99.90
9237;DHT22;24579;42.810;23.214;2022-09-01T05:48:09;16.00;99.90
9237;DHT22;24579;42.810;23.214;2022-09-01T05:50:38;16.00;99.90
9237;DHT22;24579;42.810;23.214;2022-09-01T05:53:08;16.10;99.90
9237;DHT22;24579;42.810;23.214;2022-09-01T05:55:42;16.10;99.90
9237;DHT22;24579;42.810;23.214;2022-09-01T05:58:10;16.30;99.90
9237;DHT22;24579;42.810;23.214;2022-09-01T06:00:39;16.40;99.90
9237;DHT22;24579;42.810;23.214;2022-09-01T06:03:08;16.10;99.90
9237;DHT22;24579;42.810;23.214;2022-09-01T06:05:35;16.10;99.90
9237;DHT22;24579;42.810;23.214;2022-09-01T06:08:03;16.10;99.90
9237;DHT22;24579;42.810;23.214;2022-09-01T06:10:33;16.00;99.90
9237;DHT22;24579;42.810;23.214;2022-09-01T06:13:06;16.20;99.90
9237;DHT22;24579;42.810;23.214;2022-09-01T06:15:34;16.50;99.90
9237;DHT22;24579;42.810;23.214;2022-09-01T06:18:04;16.80;99.90
9237;DHT22;24579;42.810;23.214;2022-09-01T06:20:31;16.70;99.90
9237;DHT22;24579;42.810;23.214;2022-09-01T06:22:58;16.60;99.90
9237;DHT22;24579;42.810;23.214;2022-09-01T06:25:27;16.80;99.90
9237;DHT22;24579;42.810;23.214;2022-09-01T06:27:56;17.10;99.90
9237;DHT22;24579;42.810;23.214;2022-09-01T06:30:24;17.10;99.90
9237;DHT22;24579;42.810;23.214;2022-09-01T06:32:52;16.90;99.90
9237;DHT22;24579;42.810;23.214;2022-09-01T06:35:20;16.60;99.90
9237;DHT22;24579;42.810;23.214;2022-09-01T06:37:49;16.80;99.90
9237;DHT22;24579;42.810;23.214;2022-09-01T06:40:17;17.10;99.90
9237;DHT22;24579;42.810;23.214;2022-09-01T06:42:45;17.20;99.90
9237;DHT22;24579;42.810;23.214;2022-09-01T06:45:13;17.30;99.90
9237;DHT22;24579;42.810;23.214;2022-09-01T06:47:43;17.30;99.90
9237;DHT22;24579;42.810;23.214;2022-09-01T06:50:12;17.20;99.90
9237;DHT22;24579;42.810;23.214;2022-09-01T06:52:40;17.40;99.90
9237;DHT22;24579;42.810;23.214;2022-09-01T06:55:08;17.50;99.90
9237;DHT22;24579;42.810;23.214;2022-09-01T06:57:36;17.60;99.90
9237;DHT22;24579;42.810;23.214;2022-09-01T07:00:05;17.70;99.90
9237;DHT22;24579;42.810;23.214;2022-09-01T07:02:43;17.70;99.90
9237;DHT22;24579;42.810;23.214;2022-09-01T07:05:11;17.70;99.90
9237;DHT22;24579;42.810;23.214;2022-09-01T07:07:45;18.00;99.90
9237;DHT22;24579;42.810;23.214;2022-09-01T07:10:16;18.10;99.90
9237;DHT22;24579;42.810;23.214;2022-09-01T07:12:47;18.10;99.90
9237;DHT22;24579;42.810;23.214;2022-09-01T07:15:14;18.40;99.90
9237;DHT22;24579;42.810;23.214;2022-09-01T07:17:45;18.40;99.90
9237;DHT22;24579;42.810;23.214;2022-09-01T07:20:15;18.60;99.90
9237;DHT22;24579;42.810;23.214;2022-09-01T07:22:42;18.70;99.90
9237;DHT22;24579;42.810;23.214;2022-09-01T07:25:09;18.70;99.90
9237;DHT22;24579;42.810;23.214;2022-09-01T07:27:38;18.70;99.90
9237;DHT22;24579;42.810;23.214;2022-09-01T07:30:06;18.60;99.90
9237;DHT22;24579;42.810;23.214;2022-09-01T07:32:35;18.80;99.90
9237;DHT22;24579;42.810;23.214;2022-09-01T07:35:06;19.20;99.90
9237;DHT22;24579;42.810;23.214;2022-09-01T07:37:34;19.40;99.90
9237;DHT22;24579;42.810;23.214;2022-09-01T07:40:04;19.50;99.90
9237;DHT22;24579;42.810;23.214;2022-09-01T07:42:32;19.60;99.90
9237;DHT22;24579;42.810;23.214;2022-09-01T07:45:00;19.80;99.90
9237;DHT22;24579;42.810;23.214;2022-09-01T07:47:29;20.30;99.90
9237;DHT22;24579;42.810;23.214;2022-09-01T07:49:56;20.50;99.90
9237;DHT22;24579;42.810;23.214;2022-09-01T07:52:26;20.60;99.90
9237;DHT22;24579;42.810;23.214;2022-09-01T07:54:53;20.70;99.90
9237;DHT22;24579;42.810;23.214;2022-09-01T07:57:20;20.50;99.90
9237;DHT22;24579;42.810;23.214;2022-09-01T07:59:47;20.60;99.90
9237;DHT22;24579;42.810;23.214;2022-09-01T08:02:15;20.60;99.90
9237;DHT22;24579;42.810;23.214;2022-09-01T08:04:42;21.10;99.90
9237;DHT22;24579;42.810;23.214;2022-09-01T08:07:10;21.30;99.90
9237;DHT22;24579;42.810;23.214;2022-09-01T08:09:40;21.30;99.90
9237;DHT22;24579;42.810;23.214;2022-09-01T08:12:07;21.60;99.90
9237;DHT22;24579;42.810;23.214;2022-09-01T08:14:34;21.90;99.90
9237;DHT22;24579;42.810;23.214;2022-09-01T08:17:01;22.40;99.90
9237;DHT22;24579;42.810;23.214;2022-09-01T08:19:28;22.60;99.90
9237;DHT22;24579;42.810;23.214;2022-09-01T08:21:56;22.60;99.90
9237;DHT22;24579;42.810;23.214;2022-09-01T08:24:23;22.70;99.90
9237;DHT22;24579;42.810;23.214;2022-09-01T08:26:51;22.80;99.90
9237;DHT22;24579;42.810;23.214;2022-09-01T08:29:18;23.00;99.90
9237;DHT22;24579;42.810;23.214;2022-09-01T08:31:46;23.50;99.90
9237;DHT22;24579;42.810;23.214;2022-09-01T08:34:13;24.10;99.90
9237;DHT22;24579;42.810;23.214;2022-09-01T08:36:41;24.40;99.90
9237;DHT22;24579;42.810;23.214;2022-09-01T08:39:08;24.60;99.90
9237;DHT22;24579;42.810;23.214;2022-09-01T08:41:42;24.50;99.90
9237;DHT22;24579;42.810;23.214;2022-09-01T08:44:19;24.50;99.90
9237;DHT22;24579;42.810;23.214;2022-09-01T08:46:48;24.50;99.90
9237;DHT22;24579;42.810;23.214;2022-09-01T08:49:22;25.10;99.90
9237;DHT22;24579;42.810;23.214;2022-09-01T08:51:55;25.50;99.90
9237;DHT22;24579;42.810;23.214;2022-09-01T08:54:27;25.40;99.90
9237;DHT22;24579;42.810;23.214;2022-09-01T08:57:01;25.20;98.70
9237;DHT22;24579;42.810;23.214;2022-09-01T08:59:32;25.60;97.60
9237;DHT22;24579;42.810;23.214;2022-09-01T09:02:19;26.00;96.00
9237;DHT22;24579;42.810;23.214;2022-09-01T09:04:55;26.30;95.30
9237;DHT22;24579;42.810;23.214;2022-09-01T09:07:36;26.20;91.90
9237;DHT22;24579;42.810;23.214;2022-09-01T09:10:13;25.60;93.40
9237;DHT22;24579;42.810;23.214;2022-09-01T09:12:52;25.50;94.30
9237;DHT22;24579;42.810;23.214;2022-09-01T09:15:30;25.20;94.60
9237;DHT22;24579;42.810;23.214;2022-09-01T09:18:09;25.80;95.70
9237;DHT22;24579;42.810;23.214;2022-09-01T09:20:38;26.70;94.60
9237;DHT22;24579;42.810;23.214;2022-09-01T09:23:14;27.40;91.40
9237;DHT22;24579;42.810;23.214;2022-09-01T09:25:42;27.50;88.90
9237;DHT22;24579;42.810;23.214;2022-09-01T09:28:09;27.50;85.40
9237;DHT22;24579;42.810;23.214;2022-09-01T09:30:37;27.90;82.70
9237;DHT22;24579;42.810;23.214;2022-09-01T09:33:06;27.90;77.20
9237;DHT22;24579;42.810;23.214;2022-09-01T09:35:37;28.20;77.90
9237;DHT22;24579;42.810;23.214;2022-09-01T09:38:25;28.10;77.30
9237;DHT22;24579;42.810;23.214;2022-09-01T09:40:59;28.20;80.70
9237;DHT22;24579;42.810;23.214;2022-09-01T09:43:28;28.50;76.30
9237;DHT22;24579;42.810;23.214;2022-09-01T09:46:22;28.70;77.80
9237;DHT22;24579;42.810;23.214;2022-09-01T09:49:11;29.30;74.20
9237;DHT22;24579;42.810;23.214;2022-09-01T09:51:39;28.50;74.10
9237;DHT22;24579;42.810;23.214;2022-09-01T09:54:16;29.20;76.30
9237;DHT22;24579;42.810;23.214;2022-09-01T09:56:45;29.60;73.10
9237;DHT22;24579;42.810;23.214;2022-09-01T09:59:18;30.00;67.70
9237;DHT22;24579;42.810;23.214;2022-09-01T10:01:48;29.50;66.30
9237;DHT22;24579;42.810;23.214;2022-09-01T10:04:35;30.20;67.20
9237;DHT22;24579;42.810;23.214;2022-09-01T10:07:25;30.70;63.80
9237;DHT22;24579;42.810;23.214;2022-09-01T10:09:54;31.30;63.10
9237;DHT22;24579;42.810;23.214;2022-09-01T10:12:22;30.60;64.30
9237;DHT22;24579;42.810;23.214;2022-09-01T10:14:53;29.90;66.60
9237;DHT22;24579;42.810;23.214;2022-09-01T10:17:28;30.80;63.90
9237;DHT22;24579;42.810;23.214;2022-09-01T10:19:59;31.10;61.50
9237;DHT22;24579;42.810;23.214;2022-09-01T10:22:30;31.40;58.20
9237;DHT22;24579;42.810;23.214;2022-09-01T10:24:58;31.70;58.20
9237;DHT22;24579;42.810;23.214;2022-09-01T10:27:29;32.30;57.10
9237;DHT22;24579;42.810;23.214;2022-09-01T10:30:04;32.00;57.10
9237;DHT22;24579;42.810;23.214;2022-09-01T10:32:38;31.60;59.30
9237;DHT22;24579;42.810;23.214;2022-09-01T10:35:07;32.10;57.70
9237;DHT22;24579;42.810;23.214;2022-09-01T10:37:36;32.30;56.90
9237;DHT22;24579;42.810;23.214;2022-09-01T10:40:19;32.20;55.10
9237;DHT22;24579;42.810;23.214;2022-09-01T10:42:48;32.20;55.40
9237;DHT22;24579;42.810;23.214;2022-09-01T10:45:29;32.60;56.10
9237;DHT22;24579;42.810;23.214;2022-09-01T10:48:30;32.60;56.50
9237;DHT22;24579;42.810;23.214;2022-09-01T10:51:40;33.00;55.20
9237;DHT22;24579;42.810;23.214;2022-09-01T10:54:07;32.20;54.60
9237;DHT22;24579;42.810;23.214;2022-09-01T10:56:40;30.90;56.10
9237;DHT22;24579;42.810;23.214;2022-09-01T10:59:10;30.20;56.20
9237;DHT22;24579;42.810;23.214;2022-09-01T11:02:11;29.60;58.40
9237;DHT22;24579;42.810;23.214;2022-09-01T11:05:17;29.90;59.00
9237;DHT22;24579;42.810;23.214;2022-09-01T11:07:44;29.60;59.40
9237;DHT22;24579;42.810;23.214;2022-09-01T11:10:32;30.10;58.90
9237;DHT22;24579;42.810;23.214;2022-09-01T11:15:52;31.10;58.10
9237;DHT22;24579;42.810;23.214;2022-09-01T11:18:25;31.30;56.30
9237;DHT22;24579;42.810;23.214;2022-09-01T11:21:13;31.20;55.90
9237;DHT22;24579;42.810;23.214;2022-09-01T11:23:40;31.30;55.80
9237;DHT22;24579;42.810;23.214;2022-09-01T11:29:08;31.40;56.40
9237;DHT22;24579;42.810;23.214;2022-09-01T11:31:55;31.60;56.80
9237;DHT22;24579;42.810;23.214;2022-09-01T11:34:22;31.80;56.40
9237;DHT22;24579;42.810;23.214;2022-09-01T11:36:54;32.10;54.60
9237;DHT22;24579;42.810;23.214;2022-09-01T11:39:45;32.80;53.80
9237;DHT22;24579;42.810;23.214;2022-09-01T11:42:17;33.40;55.00
9237;DHT22;24579;42.810;23.214;2022-09-01T11:44:48;33.50;51.80
9237;DHT22;24579;42.810;23.214;2022-09-01T11:47:19;33.30;51.90
9237;DHT22;24579;42.810;23.214;2022-09-01T11:49:49;33.50;51.60
9237;DHT22;24579;42.810;23.214;2022-09-01T11:52:20;33.90;50.50
9237;DHT22;24579;42.810;23.214;2022-09-01T11:54:48;33.90;49.50
9237;DHT22;24579;42.810;23.214;2022-09-01T11:57:18;33.90;48.60
9237;DHT22;24579;42.810;23.214;2022-09-01T11:59:45;33.60;48.30
9237;DHT22;24579;42.810;23.214;2022-09-01T12:02:17;33.40;47.90
9237;DHT22;24579;42.810;23.214;2022-09-01T12:04:44;33.80;48.40
9237;DHT22;24579;42.810;23.214;2022-09-01T12:07:14;33.40;46.60
9237;DHT22;24579;42.810;23.214;2022-09-01T12:09:50;32.90;51.40
9237;DHT22;24579;42.810;23.214;2022-09-01T12:12:33;34.00;47.40
9237;DHT22;24579;42.810;23.214;2022-09-01T12:15:02;34.50;46.80
9237;DHT22;24579;42.810;23.214;2022-09-01T12:17:29;33.80;45.70
9237;DHT22;24579;42.810;23.214;2022-09-01T12:20:21;33.80;46.00
9237;DHT22;24579;42.810;23.214;2022-09-01T12:22:49;33.90;47.40
9237;DHT22;24579;42.810;23.214;2022-09-01T12:25:24;33.40;47.20
9237;DHT22;24579;42.810;23.214;2022-09-01T12:27:52;33.40;47.90
9237;DHT22;24579;42.810;23.214;2022-09-01T12:30:20;33.50;47.60
9237;DHT22;24579;42.810;23.214;2022-09-01T12:32:48;33.30;47.20
9237;DHT22;24579;42.810;23.214;2022-09-01T12:35:20;33.30;47.30
9237;DHT22;24579;42.810;23.214;2022-09-01T12:37:47;33.20;47.40
9237;DHT22;24579;42.810;23.214;2022-09-01T12:40:31;32.70;46.30
9237;DHT22;24579;42.810;23.214;2022-09-01T12:42:59;32.80;47.90
9237;DHT22;24579;42.810;23.214;2022-09-01T12:45:40;33.10;48.80
9237;DHT22;24579;42.810;23.214;2022-09-01T12:48:23;33.90;48.70
9237;DHT22;24579;42.810;23.214;2022-09-01T12:50:51;34.50;46.50
9237;DHT22;24579;42.810;23.214;2022-09-01T12:53:27;34.90;46.80
9237;DHT22;24579;42.810;23.214;2022-09-01T12:56:05;35.20;44.90
9237;DHT22;24579;42.810;23.214;2022-09-01T12:58:33;35.20;43.30
9237;DHT22;24579;42.810;23.214;2022-09-01T13:01:03;35.10;42.80
9237;DHT22;24579;42.810;23.214;2022-09-01T13:03:33;34.30;44.20
9237;DHT22;24579;42.810;23.214;2022-09-01T13:06:02;33.30;45.50
9237;DHT22;24579;42.810;23.214;2022-09-01T13:08:31;32.40;45.60
9237;DHT22;24579;42.810;23.214;2022-09-01T13:11:04;31.80;46.80
9237;DHT22;24579;42.810;23.214;2022-09-01T13:13:31;31.50;47.40
9237;DHT22;24579;42.810;23.214;2022-09-01T13:16:00;31.30;45.80
9237;DHT22;24579;42.810;23.214;2022-09-01T13:18:37;31.60;48.40
9237;DHT22;24579;42.810;23.214;2022-09-01T13:21:05;31.50;48.40
9237;DHT22;24579;42.810;23.214;2022-09-01T13:23:32;31.40;49.70
9237;DHT22;24579;42.810;23.214;2022-09-01T13:25:59;31.30;50.00
9237;DHT22;24579;42.810;23.214;2022-09-01T13:28:28;31.40;50.40
9237;DHT22;24579;42.810;23.214;2022-09-01T13:30:58;31.40;48.60
9237;DHT22;24579;42.810;23.214;2022-09-01T13:33:26;31.70;50.20
9237;DHT22;24579;42.810;23.214;2022-09-01T13:35:54;32.00;51.60
9237;DHT22;24579;42.810;23.214;2022-09-01T13:38:21;32.00;51.00
9237;DHT22;24579;42.810;23.214;2022-09-01T13:40:49;31.80;51.10
9237;DHT22;24579;42.810;23.214;2022-09-01T13:43:19;31.80;51.60
9237;DHT22;24579;42.810;23.214;2022-09-01T13:45:48;31.60;51.10
9237;DHT22;24579;42.810;23.214;2022-09-01T13:48:15;31.30;50.60
9237;DHT22;24579;42.810;23.214;2022-09-01T13:50:44;31.10;51.50
9237;DHT22;24579;42.810;23.214;2022-09-01T13:53:14;30.90;53.80
9237;DHT22;24579;42.810;23.214;2022-09-01T13:55:42;30.70;55.80
9237;DHT22;24579;42.810;23.214;2022-09-01T13:58:09;30.50;57.10
9237;DHT22;24579;42.810;23.214;2022-09-01T14:00:39;30.30;56.30
9237;DHT22;24579;42.810;23.214;2022-09-01T14:03:10;30.00;56.90
9237;DHT22;24579;42.810;23.214;2022-09-01T14:05:40;30.20;57.30
9237;DHT22;24579;42.810;23.214;2022-09-01T14:08:09;30.10;57.10
9237;DHT22;24579;42.810;23.214;2022-09-01T14:10:38;30.00;58.40
9237;DHT22;24579;42.810;23.214;2022-09-01T14:13:06;30.10;58.90
9237;DHT22;24579;42.810;23.214;2022-09-01T14:15:34;30.10;59.20
9237;DHT22;24579;42.810;23.214;2022-09-01T14:18:02;30.30;59.30
9237;DHT22;24579;42.810;23.214;2022-09-01T14:20:32;30.70;58.60
9237;DHT22;24579;42.810;23.214;2022-09-01T14:23:03;30.40;58.20
9237;DHT22;24579;42.810;23.214;2022-09-01T14:25:32;30.00;58.70
9237;DHT22;24579;42.810;23.214;2022-09-01T14:27:59;29.70;59.50
9237;DHT22;24579;42.810;23.214;2022-09-01T14:30:29;29.30;64.20
9237;DHT22;24579;42.810;23.214;2022-09-01T14:32:56;28.90;67.40
9237;DHT22;24579;42.810;23.214;2022-09-01T14:35:24;28.70;69.10
9237;DHT22;24579;42.810;23.214;2022-09-01T14:37:54;28.60;71.50
9237;DHT22;24579;42.810;23.214;2022-09-01T14:40:23;28.20;71.40
9237;DHT22;24579;42.810;23.214;2022-09-01T14:42:51;28.10;72.30
9237;DHT22;24579;42.810;23.214;2022-09-01T14:45:20;27.90;72.90
9237;DHT22;24579;42.810;23.214;2022-09-01T14:47:49;28.00;73.90
9237;DHT22;24579;42.810;23.214;2022-09-01T14:50:18;27.90;75.30
9237;DHT22;24579;42.810;23.214;2022-09-01T14:52:46;27.90;75.50
9237;DHT22;24579;42.810;23.214;2022-09-01T14:55:14;27.90;76.00
9237;DHT22;24579;42.810;23.214;2022-09-01T14:57:41;27.80;76.70
9237;DHT22;24579;42.810;23.214;2022-09-01T15:00:10;27.30;77.20
9237;DHT22;24579;42.810;23.214;2022-09-01T15:02:38;27.20;78.80
9237;DHT22;24579;42.810;23.214;2022-09-01T15:05:07;27.20;79.30
9237;DHT22;24579;42.810;23.214;2022-09-01T15:07:34;27.30;79.60
9237;DHT22;24579;42.810;23.214;2022-09-01T15:10:01;27.30;80.20
9237;DHT22;24579;42.810;23.214;2022-09-01T15:12:29;27.20;80.30
9237;DHT22;24579;42.810;23.214;2022-09-01T15:14:56;27.10;79.80
9237;DHT22;24579;42.810;23.214;2022-09-01T15:17:24;27.00;80.60
9237;DHT22;24579;42.810;23.214;2022-09-01T15:19:51;26.90;81.50
9237;DHT22;24579;42.810;23.214;2022-09-01T15:22:19;26.70;82.80
9237;DHT22;24579;42.810;23.214;2022-09-01T15:24:46;26.40;82.90
9237;DHT22;24579;42.810;23.214;2022-09-01T15:27:13;26.40;83.80
9237;DHT22;24579;42.810;23.214;2022-09-01T15:29:41;26.20;85.00
9237;DHT22;24579;42.810;23.214;2022-09-01T15:32:10;26.10;86.00
9237;DHT22;24579;42.810;23.214;2022-09-01T15:34:37;26.00;86.20
9237;DHT22;24579;42.810;23.214;2022-09-01T15:37:05;25.90;87.00
9237;DHT22;24579;42.810;23.214;2022-09-01T15:39:33;25.90;86.40
9237;DHT22;24579;42.810;23.214;2022-09-01T15:42:01;25.80;87.10
9237;DHT22;24579;42.810;23.214;2022-09-01T15:44:28;25.60;87.60
9237;DHT22;24579;42.810;23.214;2022-09-01T15:46:57;25.60;87.90
9237;DHT22;24579;42.810;23.214;2022-09-01T15:49:24;25.60;88.60
9237;DHT22;24579;42.810;23.214;2022-09-01T15:51:54;25.40;88.70
9237;DHT22;24579;42.810;23.214;2022-09-01T15:54:22;25.40;89.20
9237;DHT22;24579;42.810;23.214;2022-09-01T15:56:51;25.40;89.50
9237;DHT22;24579;42.810;23.214;2022-09-01T15:59:18;25.30;90.10